Time;durP1;ratioP1;P1;durP2;ratioP2;P2;SDS_P1;SDS_P2;PMS_P1;PMS_P2;Temp;Humidity;BMP_temperature;BMP_pressure;BME280_temperature;BME280_humidity;BME280_pressure;Samples;Min_cycle;Max_cycle;Signal;HPM_P1;HPM_P2
2023/10/01 00:00:36;;;;;;;;;16.50;14.25;;;;;19.95;46.26;101954.91;5059307;28;45447;-61
2023/10/01 00:03:04;;;;;;;;;11.75;11.25;;;;;19.96;46.02;101957.53;5041894;28;45453;-61
2023/10/01 00:05:30;;;;;;;;;12.00;10.75;;;;;19.91;46.35;101946.16;5042025;28;45398;-61
2023/10/01 00:07:55;;;;;;;;;11.25;10.25;;;;;19.93;46.50;101948.75;5059663;28;45540;-61
2023/10/01 00:10:22;;;;;;;;;9.50;9.50;;;;;19.90;46.09;101952.41;5051422;28;46105;-61
2023/10/01 00:12:49;;;;;;;;;14.50;12.25;;;;;19.86;46.59;101953.44;5063564;28;45439;-61
2023/10/01 00:15:18;;;;;;;;;12.00;10.75;;;;;19.86;46.19;101952.56;5062208;28;45487;-61
2023/10/01 00:17:44;;;;;;;;;15.50;12.00;;;;;19.84;46.17;101959.75;5059561;28;45452;-61
2023/10/01 00:20:20;;;;;;;;;12.75;10.25;;;;;19.82;46.20;101957.06;5041767;28;48175;-61
2023/10/01 00:22:46;;;;;;;;;11.25;11.25;;;;;19.77;46.59;101953.69;5059637;28;45287;-61
2023/10/01 00:25:12;;;;;;;;;16.50;13.25;;;;;19.76;46.31;101962.63;5059587;28;45367;-61
2023/10/01 00:27:38;;;;;;;;;15.50;13.50;;;;;19.75;46.73;101955.56;5060026;28;45253;-61
2023/10/01 00:30:07;;;;;;;;;15.25;11.25;;;;;19.70;46.46;101950.38;5059817;28;45368;-61
2023/10/01 00:32:33;;;;;;;;;13.25;11.50;;;;;19.68;46.56;101949.53;5059883;28;45363;-61
2023/10/01 00:34:59;;;;;;;;;16.25;14.00;;;;;19.69;46.41;101961.09;5059532;28;45518;-61
2023/10/01 00:37:24;;;;;;;;;15.00;11.25;;;;;19.66;46.80;101948.75;5059520;28;53200;-61
2023/10/01 00:39:56;;;;;;;;;15.75;12.75;;;;;19.62;46.99;101950.63;5059407;28;46373;-61
2023/10/01 00:42:25;;;;;;;;;17.25;13.75;;;;;19.62;46.58;101955.06;5059889;28;45533;-61
2023/10/01 00:44:51;;;;;;;;;13.00;12.75;;;;;19.58;46.46;101951.63;5041121;28;45341;-61
2023/10/01 00:47:17;;;;;;;;;15.00;12.75;;;;;19.57;47.00;101946.38;5059932;28;45159;-61
2023/10/01 00:49:46;;;;;;;;;14.50;13.25;;;;;19.52;46.90;101942.97;5058808;28;45469;-61
2023/10/01 00:52:18;;;;;;;;;15.75;14.00;;;;;19.52;46.64;101938.53;5038659;28;45827;-61
2023/10/01 00:54:47;;;;;;;;;14.25;13.25;;;;;19.48;46.53;101937.75;5051517;28;45447;-61
2023/10/01 00:57:15;;;;;;;;;18.00;14.50;;;;;19.47;47.01;101943.13;5041145;28;45285;-60
2023/10/01 00:59:43;;;;;;;;;20.25;13.75;;;;;19.43;46.95;101944.16;5041404;28;46092;-61
2023/10/01 01:02:09;;;;;;;;;16.25;13.25;;;;;19.41;47.24;101938.88;5059520;28;45317;-61
2023/10/01 01:04:42;;;;;;;;;14.50;13.50;;;;;19.39;46.90;101932.72;5059618;28;45435;-61
2023/10/01 01:07:19;;;;;;;;;15.50;13.00;;;;;19.36;46.61;101929.28;5059211;28;45496;-61
2023/10/01 01:09:46;;;;;;;;;17.25;14.25;;;;;19.33;46.83;101933.81;5052476;28;45337;-61
2023/10/01 01:12:15;;;;;;;;;18.75;16.00;;;;;19.29;47.07;101924.13;5057355;28;45340;-61
2023/10/01 01:14:44;;;;;;;;;16.50;13.50;;;;;19.28;47.06;101932.19;5066475;28;45169;-61
2023/10/01 01:17:13;;;;;;;;;15.25;12.50;;;;;19.24;47.06;101923.41;5059082;28;45381;-61
2023/10/01 01:19:39;;;;;;;;;12.50;11.75;;;;;19.23;47.12;101926.13;5059162;28;46298;-61
2023/10/01 01:22:04;;;;;;;;;17.00;11.25;;;;;19.22;46.87;101927.06;5037620;28;45821;-61
2023/10/01 01:24:30;;;;;;;;;18.75;13.25;;;;;19.17;47.07;101917.41;5051237;28;45266;-61
2023/10/01 01:27:00;;;;;;;;;13.75;11.00;;;;;19.17;47.30;101919.22;5059173;28;45294;-61
2023/10/01 01:29:33;;;;;;;;;13.50;10.50;;;;;19.11;47.37;101906.09;5058001;28;46194;-60
2023/10/01 01:32:13;;;;;;;;;17.50;15.50;;;;;19.10;47.27;101913.19;5059289;28;45344;-61
2023/10/01 01:34:40;;;;;;;;;15.00;14.25;;;;;19.08;47.32;101904.41;5041030;28;45472;-60
2023/10/01 01:37:06;;;;;;;;;14.75;14.75;;;;;19.05;47.72;101906.28;5059102;28;45242;-60
2023/10/01 01:39:48;;;;;;;;;14.00;12.25;;;;;19.05;47.49;101898.28;5058615;28;46054;-61
2023/10/01 01:42:19;;;;;;;;;16.25;12.50;;;;;19.04;47.13;101904.53;5059109;28;45284;-60
2023/10/01 01:44:44;;;;;;;;;20.25;13.00;;;;;19.01;46.81;101889.53;5037532;28;45372;-61
2023/10/01 01:47:10;;;;;;;;;16.50;12.00;;;;;19.00;47.36;101894.00;5051646;28;46234;-60
2023/10/01 01:49:36;;;;;;;;;17.50;13.50;;;;;18.97;47.68;101890.56;5058920;28;45385;-60
2023/10/01 01:52:05;;;;;;;;;15.50;12.50;;;;;18.93;47.38;101881.78;5059001;28;45277;-60
2023/10/01 01:54:34;;;;;;;;;14.00;12.25;;;;;18.91;47.59;101882.75;5050742;28;45405;-60
2023/10/01 01:57:00;;;;;;;;;17.50;15.25;;;;;18.90;47.25;101883.63;5058533;28;45479;-60
2023/10/01 01:59:29;;;;;;;;;16.50;14.00;;;;;18.89;47.73;101889.88;5058967;28;45362;-60
2023/10/01 02:01:57;;;;;;;;;10.75;10.00;;;;;18.88;47.51;101888.13;5061179;28;45209;-60
2023/10/01 02:04:23;;;;;;;;;14.75;12.00;;;;;18.85;47.46;101894.41;5062406;28;45507;-61
2023/10/01 02:06:53;;;;;;;;;14.00;12.50;;;;;18.80;47.61;101891.03;5062105;28;45436;-60
2023/10/01 02:09:20;;;;;;;;;11.75;11.50;;;;;18.79;47.67;101891.94;5059600;28;45392;-61
2023/10/01 02:11:49;;;;;;;;;15.75;15.75;;;;;18.78;47.80;101892.84;5056075;28;45365;-60
2023/10/01 02:14:31;;;;;;;;;15.00;11.75;;;;;18.74;47.55;101893.88;5068302;28;45288;-60
2023/10/01 02:17:16;;;;;;;;;17.50;13.00;;;;;18.74;47.73;101899.19;5060467;28;45754;-61
2023/10/01 02:19:46;;;;;;;;;18.75;13.75;;;;;18.71;47.97;101894.84;5061790;28;45999;-60
2023/10/01 02:22:12;;;;;;;;;15.50;12.00;;;;;18.68;47.64;101890.47;5061735;28;45448;-61
2023/10/01 02:24:45;;;;;;;;;17.00;14.75;;;;;18.67;48.23;101888.72;5061724;28;45398;-61
2023/10/01 02:27:15;;;;;;;;;20.00;13.25;;;;;18.59;47.76;101885.44;5060268;28;45685;-60
2023/10/01 02:32:27;;;;;;;;;16.25;13.00;;;;;18.61;47.83;101891.56;5062146;28;45238;-60
2023/10/01 02:34:56;;;;;;;;;13.75;12.25;;;;;18.62;48.21;101889.81;5061783;28;45307;-60
2023/10/01 02:37:35;;;;;;;;;13.00;13.00;;;;;18.59;48.02;101893.44;5061794;28;45434;-60
2023/10/01 02:40:12;;;;;;;;;15.75;14.25;;;;;18.57;48.07;101889.06;5061477;28;45431;-60
2023/10/01 02:42:38;;;;;;;;;5.00;4.50;;;;;18.56;47.98;101889.97;5060747;28;45253;-60
2023/10/01 02:45:30;;;;;;;;;14.75;14.75;;;;;18.59;48.09;101903.19;5060377;28;45485;-60
2023/10/01 02:48:13;;;;;;;;;20.75;15.75;;;;;18.54;47.96;101889.13;5060978;28;45348;-60
2023/10/01 02:50:36;;;;;;;;;12.75;12.50;;;;;18.55;48.09;101894.41;5061074;28;45470;-61
2023/10/01 02:53:03;;;;;;;;;19.00;16.00;;;;;18.51;48.31;101885.66;5059452;28;45469;-60
2023/10/01 02:55:30;;;;;;;;;12.00;9.75;;;;;18.53;48.22;101893.59;5060929;28;45521;-60
2023/10/01 02:58:17;;;;;;;;;15.00;13.75;;;;;18.50;47.93;101894.56;5042371;28;45789;-60
2023/10/01 03:00:42;;;;;;;;;19.50;15.00;;;;;18.47;48.16;101899.97;5060454;28;46349;-61
2023/10/01 03:03:14;;;;;;;;;18.50;15.50;;;;;18.44;48.20;101892.09;5060513;28;45349;-60
2023/10/01 03:05:42;;;;;;;;;16.50;13.50;;;;;18.47;48.38;101893.78;5060522;28;45417;-60
2023/10/01 03:08:11;;;;;;;;;15.75;13.25;;;;;18.44;48.49;101889.41;5060454;28;45203;-60
2023/10/01 03:10:38;;;;;;;;;16.75;14.50;;;;;18.40;48.41;101895.75;5059863;28;46313;-60
2023/10/01 03:13:18;;;;;;;;;15.75;13.75;;;;;18.40;48.36;101902.84;5066328;28;45354;-60
2023/10/01 03:15:44;;;;;;;;;19.00;15.25;;;;;18.35;48.43;101885.25;5061237;28;45311;-60
2023/10/01 03:28:28;;;;;;;;;14.00;13.00;;;;;18.24;48.66;101882.00;5060801;28;45326;-60
2023/10/01 03:31:06;;;;;;;;;19.00;13.50;;;;;18.24;48.51;101895.31;5059752;28;46413;-60
2023/10/01 03:33:40;;;;;;;;;17.25;12.50;;;;;18.23;48.72;101888.25;5060901;28;45325;-60
2023/10/01 03:36:10;;;;;;;;;18.50;14.75;;;;;18.21;48.65;101887.41;5060663;28;45315;-60
2023/10/01 03:38:45;;;;;;;;;16.25;15.00;;;;;18.18;48.67;101879.53;5041995;28;45203;-60
2023/10/01 03:41:21;;;;;;;;;18.25;14.25;;;;;18.16;48.63;101876.03;5060095;28;46227;-60
2023/10/01 03:43:51;;;;;;;;;18.00;15.50;;;;;18.14;48.77;101883.19;5060943;28;45232;-60
2023/10/01 03:46:26;;;;;;;;;18.75;15.75;;;;;18.11;48.46;101878.84;5060558;28;45313;-61
2023/10/01 03:51:52;;;;;;;;;21.75;18.00;;;;;18.03;48.86;101871.03;5060432;28;45568;-60
2023/10/01 03:54:52;;;;;;;;;17.50;13.25;;;;;18.08;48.95;101880.69;5068190;28;45477;-60
2023/10/01 03:57:17;;;;;;;;;13.00;13.00;;;;;18.03;48.79;101867.53;5060001;28;45412;-61
2023/10/01 04:00:29;;;;;;;;;13.50;12.25;;;;;18.03;49.15;101864.84;5060313;28;45516;-61
2023/10/01 04:02:47;;;;;;;;;15.00;12.00;;;;;18.01;49.07;101870.22;5057667;28;45449;-61
2023/10/01 04:05:31;;;;;;;;;18.50;14.50;;;;;18.00;49.09;101870.28;5060039;28;45276;-60
2023/10/01 04:08:04;;;;;;;;;18.00;14.00;;;;;17.97;48.94;101867.69;5060338;28;45313;-60
2023/10/01 04:10:31;;;;;;;;;16.50;14.00;;;;;17.94;48.96;101865.97;5051265;28;45363;-60
2023/10/01 04:13:01;;;;;;;;;16.00;14.00;;;;;17.89;48.81;101861.69;5046858;28;46226;-60
2023/10/01 04:15:27;;;;;;;;;16.50;13.75;;;;;17.89;48.92;101862.53;5043565;28;45284;-60
2023/10/01 04:20:48;;;;;;;;;16.00;14.25;;;;;17.85;49.24;101861.75;5060121;28;45327;-60
2023/10/01 04:23:29;;;;;;;;;14.75;13.00;;;;;17.81;49.42;101857.44;5041696;28;48310;-61
2023/10/01 04:26:05;;;;;;;;;16.50;15.50;;;;;17.78;49.54;101849.53;5040392;28;45419;-60
2023/10/01 04:28:34;;;;;;;;;15.50;13.75;;;;;17.75;49.24;101851.38;5041802;28;45297;-61
2023/10/01 04:31:03;;;;;;;;;16.00;14.00;;;;;17.77;49.55;101852.22;5060028;28;45476;-60
2023/10/01 04:33:29;;;;;;;;;16.75;14.75;;;;;17.74;49.40;101850.53;5059876;28;45490;-60
2023/10/01 04:35:55;;;;;;;;;16.75;14.25;;;;;17.74;49.33;101855.00;5059800;28;45207;-60
2023/10/01 04:38:32;;;;;;;;;15.25;13.00;;;;;17.69;49.37;101852.44;5059653;28;45237;-60
2023/10/01 04:41:04;;;;;;;;;13.75;12.75;;;;;17.70;49.41;101860.38;5059656;28;45323;-60
2023/10/01 04:43:41;;;;;;;;;14.50;12.75;;;;;17.68;49.80;101856.91;5059758;28;45190;-60
2023/10/01 04:46:08;;;;;;;;;18.00;14.00;;;;;17.68;49.48;101870.19;5059628;28;45225;-61
2023/10/01 04:48:36;;;;;;;;;17.50;15.75;;;;;17.68;49.50;101870.19;5059896;28;45300;-61
2023/10/01 04:51:07;;;;;;;;;16.75;11.00;;;;;17.67;49.54;101871.09;5058743;28;45399;-61
2023/10/01 04:53:33;;;;;;;;;15.00;13.75;;;;;17.65;49.74;101867.59;5053089;28;46995;-60
2023/10/01 04:56:04;;;;;;;;;13.25;10.25;;;;;17.65;49.94;101866.72;5056638;28;45310;-61
2023/10/01 04:58:32;;;;;;;;;8.75;8.75;;;;;17.62;49.82;101862.38;5059630;28;45357;-60
2023/10/01 05:00:58;;;;;;;;;22.50;14.75;;;;;17.62;49.64;101859.72;5059250;28;45441;-61
2023/10/01 05:03:39;;;;;;;;;16.00;13.50;;;;;17.62;49.70;101872.13;5058176;28;46516;-61
2023/10/01 05:06:08;;;;;;;;;17.75;14.25;;;;;17.59;49.53;101867.75;5059584;28;45260;-61
2023/10/01 05:08:40;;;;;;;;;14.25;12.00;;;;;17.60;49.62;101872.16;5059529;28;45225;-61
2023/10/01 05:11:11;;;;;;;;;15.00;12.75;;;;;17.58;49.61;101866.00;5049114;28;45470;-61
2023/10/01 05:13:41;;;;;;;;;12.00;11.50;;;;;17.51;49.77;101856.47;5067127;28;45430;-61
2023/10/01 05:16:13;;;;;;;;;13.50;11.75;;;;;17.56;49.86;101867.84;5041144;28;45431;-61
2023/10/01 05:18:39;;;;;;;;;13.25;10.50;;;;;17.56;49.82;101867.84;5059520;28;45387;-61
2023/10/01 05:21:12;;;;;;;;;15.00;11.75;;;;;17.53;49.81;101873.22;5059327;28;45485;-60
2023/10/01 05:23:39;;;;;;;;;16.00;11.00;;;;;17.50;49.85;101865.34;5059189;28;46378;-60
2023/10/01 05:26:05;;;;;;;;;14.25;12.00;;;;;17.47;50.01;101868.94;5058955;28;46029;-60
2023/10/01 05:28:31;;;;;;;;;15.00;14.00;;;;;17.50;49.95;101873.31;5059296;28;45240;-60
2023/10/01 05:31:14;;;;;;;;;13.50;12.00;;;;;17.49;50.13;101874.22;5059152;28;45577;-61
2023/10/01 05:33:46;;;;;;;;;14.00;13.00;;;;;17.46;49.77;101874.28;5059150;28;45357;-60
2023/10/01 05:36:13;;;;;;;;;13.50;12.50;;;;;17.43;49.97;101869.91;5060006;28;45312;-61
2023/10/01 05:38:39;;;;;;;;;13.25;13.25;;;;;17.43;50.06;101875.22;5044669;28;45434;-61
2023/10/01 05:41:09;;;;;;;;;16.25;11.00;;;;;17.43;50.12;101877.88;5062197;28;45296;-60
2023/10/01 05:43:43;;;;;;;;;13.25;12.25;;;;;17.42;49.70;101880.59;5062769;28;45488;-60
2023/10/01 05:46:09;;;;;;;;;13.50;11.75;;;;;17.39;50.04;101878.88;5062262;28;45321;-60
2023/10/01 05:48:37;;;;;;;;;13.00;12.00;;;;;17.37;50.26;101881.59;5062770;28;45296;-60
2023/10/01 05:51:04;;;;;;;;;14.75;12.25;;;;;17.36;50.30;101889.59;5062321;28;45329;-61
2023/10/01 05:53:30;;;;;;;;;13.75;11.75;;;;;17.35;50.22;101893.16;5056571;28;45347;-60
2023/10/01 05:56:05;;;;;;;;;21.75;17.50;;;;;17.35;50.28;101896.69;5058746;28;45332;-60
2023/10/01 05:58:30;;;;;;;;;14.25;13.00;;;;;17.29;50.28;101891.50;5062550;28;45440;-61
2023/10/01 06:01:05;;;;;;;;;12.25;10.75;;;;;17.33;50.10;101900.28;5062152;28;45400;-60
2023/10/01 06:03:31;;;;;;;;;13.00;12.00;;;;;17.36;50.20;101901.09;5062402;28;45953;-64
2023/10/01 06:06:07;;;;;;;;;11.00;10.50;;;;;17.34;50.17;101891.41;5062170;28;45295;-63
2023/10/01 06:08:45;;;;;;;;;14.75;12.50;;;;;17.36;50.36;101893.13;5062242;28;45525;-60
2023/10/01 06:11:13;;;;;;;;;16.50;13.50;;;;;17.28;50.52;101878.28;5034337;28;45654;-60
2023/10/01 06:13:54;;;;;;;;;10.50;9.75;;;;;17.33;50.63;101892.31;5069553;28;45436;-60
2023/10/01 06:16:22;;;;;;;;;13.00;10.50;;;;;17.32;50.54;101891.47;5060547;28;45357;-60
2023/10/01 06:18:58;;;;;;;;;14.50;12.50;;;;;17.32;50.13;101896.75;5062119;28;45466;-60
2023/10/01 06:21:26;;;;;;;;;14.25;11.50;;;;;17.33;50.62;101897.63;5061645;28;45526;-60
2023/10/01 06:23:53;;;;;;;;;14.50;12.25;;;;;17.32;50.69;101895.88;5061656;28;45295;-60
2023/10/01 06:26:33;;;;;;;;;15.00;13.00;;;;;17.34;50.45;101899.38;5060260;28;45248;-60
2023/10/01 06:29:01;;;;;;;;;16.25;13.25;;;;;17.35;50.54;101891.38;5061969;28;45490;-60
2023/10/01 06:31:27;;;;;;;;;14.50;12.25;;;;;17.32;50.49;101879.94;5061697;28;45376;-62
2023/10/01 06:33:56;;;;;;;;;17.00;13.50;;;;;17.35;50.73;101894.03;5061555;28;45363;-60
2023/10/01 06:36:23;;;;;;;;;13.50;12.00;;;;;17.34;50.45;101899.38;5043587;28;45331;-60
2023/10/01 06:38:50;;;;;;;;;17.00;14.00;;;;;17.35;50.65;101907.31;5060449;28;45414;-60
2023/10/01 06:41:19;;;;;;;;;17.75;13.75;;;;;17.38;50.38;101906.34;5060465;28;45590;-60
2023/10/01 06:43:48;;;;;;;;;18.25;12.25;;;;;17.39;50.75;101910.75;5043354;28;47149;-60
2023/10/01 06:46:21;;;;;;;;;15.50;12.50;;;;;17.40;50.82;101898.38;5060363;28;45382;-60
2023/10/01 06:48:50;;;;;;;;;22.00;15.00;;;;;17.36;50.92;101893.13;5060419;28;45486;-60
2023/10/01 06:51:21;;;;;;;;;19.25;12.25;;;;;17.37;50.71;101893.97;5043116;28;45882;-60
2023/10/01 06:53:58;;;;;;;;;13.50;12.25;;;;;17.40;50.94;101903.69;5053059;28;45938;-60
2023/10/01 06:56:26;;;;;;;;;17.50;12.50;;;;;17.39;50.87;101905.44;5030583;28;45462;-60
2023/10/01 07:01:42;;;;;;;;;16.75;12.75;;;;;17.43;50.97;101906.25;5061656;28;45361;-60
2023/10/01 07:04:08;;;;;;;;;17.75;14.50;;;;;17.43;50.91;101893.81;5061409;28;46185;-60
2023/10/01 07:06:36;;;;;;;;;16.00;13.50;;;;;17.45;51.08;101896.47;5061324;28;45381;-60
2023/10/01 07:09:06;;;;;;;;;13.50;11.25;;;;;17.45;50.79;101897.34;5061131;28;45460;-61
2023/10/01 07:11:33;;;;;;;;;15.75;12.00;;;;;17.44;50.88;101894.72;5035623;28;45734;-60
2023/10/01 07:13:59;;;;;;;;;16.00;14.50;;;;;17.46;51.09;101888.47;5068299;28;45529;-60
2023/10/01 07:16:39;;;;;;;;;14.00;11.00;;;;;17.46;51.14;101888.47;5060874;28;45314;-60
2023/10/01 07:19:11;;;;;;;;;20.00;14.50;;;;;17.49;51.17;101893.69;5061387;28;45422;-61
2023/10/01 07:21:37;;;;;;;;;18.25;13.25;;;;;17.51;51.05;101891.88;5060136;28;45248;-60
2023/10/01 07:24:04;;;;;;;;;19.00;13.00;;;;;17.52;50.91;101890.97;5058558;28;45407;-60
2023/10/01 07:26:30;;;;;;;;;16.75;14.50;;;;;17.55;51.19;101898.84;5060880;28;45226;-60
2023/10/01 07:28:56;;;;;;;;;18.75;15.00;;;;;17.55;51.18;101890.88;5060940;28;45467;-61
2023/10/01 07:31:24;;;;;;;;;11.75;11.25;;;;;17.57;51.36;101890.81;5060651;28;45495;-61
2023/10/01 07:33:53;;;;;;;;;12.25;10.50;;;;;17.62;51.23;101890.72;5060785;28;46166;-61
2023/10/01 07:36:20;;;;;;;;;15.00;14.75;;;;;17.64;51.22;101894.22;5060553;28;45252;-61
2023/10/01 07:38:49;;;;;;;;;13.50;11.75;;;;;17.65;51.37;101899.50;5060619;28;45309;-62
2023/10/01 07:41:16;;;;;;;;;12.75;11.00;;;;;17.68;51.34;101904.75;5060394;28;45431;-62
2023/10/01 07:43:42;;;;;;;;;16.25;12.25;;;;;17.72;51.30;101908.16;5060584;28;46171;-63
2023/10/01 07:46:08;;;;;;;;;13.50;11.75;;;;;17.73;51.32;101907.25;5060408;28;45265;-62
2023/10/01 07:48:38;;;;;;;;;15.00;14.25;;;;;17.77;51.39;101911.56;5060630;28;45276;-61
2023/10/01 07:51:04;;;;;;;;;9.50;9.00;;;;;17.81;51.35;101899.97;5060179;28;45328;-61
2023/10/01 07:53:33;;;;;;;;;14.25;12.50;;;;;17.86;51.33;101908.69;5054399;28;45402;-61
2023/10/01 07:56:02;;;;;;;;;12.75;10.75;;;;;17.91;51.68;101910.34;5058037;28;45243;-61
2023/10/01 07:58:47;;;;;;;;;15.75;11.25;;;;;17.93;51.37;101908.53;5060236;28;45328;-62
2023/10/01 08:04:06;;;;;;;;;9.75;7.00;;;;;18.01;51.72;101907.47;5060285;28;45741;-62
2023/10/01 08:06:41;;;;;;;;;13.25;13.25;;;;;18.08;51.63;101912.63;5060265;28;45308;-63
2023/10/01 08:09:12;;;;;;;;;11.00;10.25;;;;;18.10;51.75;101903.69;5059246;28;45271;-62
2023/10/01 08:14:40;;;;;;;;;11.25;11.25;;;;;18.22;51.78;101909.56;4996714;28;46424;-62
2023/10/01 08:17:07;;;;;;;;;11.75;10.25;;;;;18.26;51.81;101913.88;5032350;28;45567;-62
2023/10/01 08:19:45;;;;;;;;;13.75;13.25;;;;;18.30;52.09;101910.22;5060262;28;45241;-62
2023/10/01 08:22:15;;;;;;;;;11.25;9.00;;;;;18.36;52.18;101920.69;5059066;28;45358;-62
2023/10/01 08:24:45;;;;;;;;;11.50;9.25;;;;;18.40;51.83;101919.72;5041381;28;47154;-62
2023/10/01 08:27:14;;;;;;;;;9.25;8.25;;;;;18.46;52.43;101922.16;5059404;28;45249;-61
2023/10/01 08:32:23;;;;;;;;;11.50;10.00;;;;;18.57;51.92;101921.00;5055569;28;45254;-60
2023/10/01 08:35:18;;;;;;;;;13.50;10.50;;;;;18.62;52.24;101921.75;5057535;28;46264;-61
2023/10/01 08:37:38;;;;;;;;;11.75;10.75;;;;;18.70;51.94;101927.69;5057183;28;45457;-62
2023/10/01 08:40:13;;;;;;;;;13.50;10.50;;;;;18.77;52.38;101923.09;5055683;28;45392;-62
2023/10/01 08:42:43;;;;;;;;;9.00;9.00;;;;;18.84;52.36;101924.63;5054468;28;45187;-62
2023/10/01 08:45:12;;;;;;;;;10.50;10.50;;;;;18.91;52.55;101914.72;5055824;28;46054;-63
2023/10/01 08:47:38;;;;;;;;;11.75;11.75;;;;;19.00;52.25;101919.75;5058981;28;45425;-61
2023/10/01 08:50:27;;;;;;;;;10.75;9.25;;;;;19.08;52.34;101922.16;5037964;28;45403;-61
2023/10/01 08:52:57;;;;;;;;;8.75;5.25;;;;;19.17;52.57;101916.56;5055356;28;45262;-61
2023/10/01 08:58:28;;;;;;;;;11.00;10.75;;;;;19.37;52.47;101929.25;4997959;28;45539;-61
2023/10/01 09:01:14;;;;;;;;;13.00;10.00;;;;;19.47;52.41;101921.78;5052731;28;45459;-61
2023/10/01 09:03:47;;;;;;;;;8.25;8.25;;;;;19.57;52.34;101925.94;5056550;28;45347;-60
2023/10/01 09:06:27;;;;;;;;;15.50;11.75;;;;;19.72;52.73;101924.53;5054507;28;46148;-61
2023/10/01 09:08:59;;;;;;;;;17.75;12.00;;;;;19.86;52.69;101916.09;5052285;28;45281;-61
2023/10/01 09:11:35;;;;;;;;;10.25;9.75;;;;;20.01;52.93;101919.13;5059433;28;45498;-61
2023/10/01 09:14:17;;;;;;;;;11.75;10.75;;;;;20.17;52.60;101916.81;5061175;28;45612;-65
2023/10/01 09:16:57;;;;;;;;;13.50;12.00;;;;;20.35;52.37;101915.25;5041326;28;46758;-62
2023/10/01 09:19:30;;;;;;;;;16.25;12.50;;;;;20.53;52.30;101911.91;5060622;28;45380;-61
2023/10/01 09:22:08;;;;;;;;;12.00;10.75;;;;;20.72;52.53;101919.25;5040604;28;45320;-62
2023/10/01 09:24:42;;;;;;;;;8.50;8.50;;;;;20.92;52.48;101913.16;5057647;28;45542;-62
2023/10/01 09:27:25;;;;;;;;;13.00;10.25;;;;;21.11;52.61;101919.47;5057580;28;46973;-62
2023/10/01 09:30:27;;;;;;;;;16.00;11.25;;;;;21.35;52.49;101922.09;5054986;28;45475;-62
2023/10/01 09:33:05;;;;;;;;;12.00;10.75;;;;;21.57;52.71;101916.78;5062038;28;45290;-63
2023/10/01 09:35:42;;;;;;;;;11.00;9.50;;;;;21.80;52.77;101911.34;5061681;28;45824;-67
2023/10/01 09:38:12;;;;;;;;;13.50;12.00;;;;;22.00;53.01;101921.19;5060654;28;45404;-63
2023/10/01 09:40:42;;;;;;;;;13.00;10.00;;;;;22.12;52.51;101901.06;5061622;28;45251;-63
2023/10/01 09:43:18;;;;;;;;;11.50;9.75;;;;;22.37;52.31;101915.09;5062001;28;45475;-62
2023/10/01 09:45:47;;;;;;;;;15.00;13.75;;;;;22.53;52.32;101909.94;5061783;28;45338;-62
2023/10/01 09:48:48;;;;;;;;;11.50;7.75;;;;;22.69;51.94;101912.75;5061795;28;45356;-63
2023/10/01 09:51:13;;;;;;;;;15.00;11.50;;;;;22.85;52.19;101915.56;5061755;28;45388;-63
2023/10/01 09:54:00;;;;;;;;;10.75;9.75;;;;;23.01;51.40;101917.53;5054724;28;45330;-63
2023/10/01 09:56:26;;;;;;;;;13.25;11.50;;;;;23.12;51.68;101908.94;5050036;28;45451;-62
2023/10/01 09:58:58;;;;;;;;;10.75;9.50;;;;;23.23;51.30;101903.97;5060062;28;45414;-63
2023/10/01 10:01:27;;;;;;;;;11.00;9.75;;;;;23.36;51.58;101913.16;5061762;28;45388;-62
2023/10/01 10:04:01;;;;;;;;;12.75;10.50;;;;;23.46;51.32;101900.16;5061790;28;45318;-62
2023/10/01 10:06:29;;;;;;;;;12.00;8.25;;;;;23.55;50.84;101901.50;5061890;28;45444;-62
2023/10/01 10:09:04;;;;;;;;;10.00;9.50;;;;;23.64;51.09;101905.53;5061005;28;45331;-63
2023/10/01 10:11:37;;;;;;;;;12.50;10.75;;;;;23.71;50.87;101906.97;5061018;28;45518;-62
2023/10/01 10:14:28;;;;;;;;;11.25;9.75;;;;;23.79;50.77;101914.59;5055179;28;45490;-63
2023/10/01 10:17:07;;;;;;;;;14.50;12.00;;;;;23.87;50.67;101907.00;5059810;28;45380;-63
2023/10/01 10:19:47;;;;;;;;;10.50;9.00;;;;;23.92;50.80;101893.41;5061403;28;47075;-62
2023/10/01 10:22:16;;;;;;;;;11.00;9.00;;;;;23.99;50.21;101890.31;5061487;28;45367;-63
2023/10/01 10:24:50;;;;;;;;;9.50;8.75;;;;;24.06;49.95;101885.47;5060993;28;45408;-63
2023/10/01 10:27:24;;;;;;;;;10.75;9.25;;;;;24.15;50.42;101884.09;5061322;28;45422;-63
2023/10/01 10:30:01;;;;;;;;;11.25;8.00;;;;;24.20;50.34;101886.56;5061098;28;45312;-63
2023/10/01 10:32:42;;;;;;;;;6.00;6.00;;;;;24.28;49.67;101890.56;5061303;28;45187;-63
2023/10/01 10:35:14;;;;;;;;;11.25;11.25;;;;;24.36;49.61;101882.06;5061190;28;45320;-64
2023/10/01 10:37:39;;;;;;;;;12.50;9.50;;;;;24.43;50.01;101882.63;5061281;28;45170;-64
2023/10/01 10:40:27;;;;;;;;;15.50;9.75;;;;;24.54;49.89;101876.66;5042683;28;46586;-64
2023/10/01 10:42:57;;;;;;;;;14.25;12.00;;;;;24.65;50.24;101882.31;5060118;28;45428;-63
2023/10/01 10:45:26;;;;;;;;;17.25;9.50;;;;;24.76;49.63;101879.03;5060564;28;45344;-64
2023/10/01 10:48:03;;;;;;;;;16.75;14.75;;;;;24.88;49.46;101872.09;5061057;28;45347;-65
2023/10/01 10:50:53;;;;;;;;;17.00;14.75;;;;;25.02;49.26;101871.31;5061204;28;46992;-65
2023/10/01 10:53:19;;;;;;;;;13.25;11.00;;;;;25.12;49.38;101859.94;5056011;28;45251;-66
2023/10/01 10:56:07;;;;;;;;;27.75;19.25;;;;;25.26;49.65;101860.97;5055839;28;45413;-66
2023/10/01 10:58:41;;;;;;;;;14.00;11.50;;;;;25.39;49.08;101861.97;5061065;28;45257;-67
2023/10/01 11:01:18;;;;;;;;;15.75;14.50;;;;;25.52;48.88;101859.44;5060722;28;46720;-68
2023/10/01 11:03:50;;;;;;;;;10.25;9.50;;;;;25.68;49.20;101863.91;5059824;28;45395;-68
2023/10/01 11:06:29;;;;;;;;;13.75;10.75;;;;;25.86;48.91;101857.41;5061162;28;45508;-69
2023/10/01 11:08:56;;;;;;;;;11.75;10.75;;;;;26.05;49.35;101853.53;5060147;28;45478;-68
2023/10/01 11:11:22;;;;;;;;;9.25;8.50;;;;;26.30;49.01;101852.88;5060635;28;45317;-67
2023/10/01 11:13:59;;;;;;;;;27.75;19.00;;;;;26.57;49.11;101854.78;5057874;28;45422;-66
2023/10/01 11:16:33;;;;;;;;;36.75;22.25;;;;;26.85;48.95;101848.47;5049372;28;45560;-68
2023/10/01 11:19:25;;;;;;;;;46.75;29.25;;;;;27.20;49.27;101850.66;5060547;28;45406;-71
2023/10/01 11:21:55;;;;;;;;;16.50;12.50;;;;;27.61;49.17;101848.84;5059804;28;46099;-67
2023/10/01 11:24:39;;;;;;;;;13.00;12.25;;;;;28.02;49.35;101852.31;5060205;28;45368;-66
2023/10/01 11:27:25;;;;;;;;;14.50;12.75;;;;;28.44;48.90;101847.53;5059128;28;45270;-67
2023/10/01 11:30:24;;;;;;;;;12.25;10.75;;;;;28.85;48.85;101845.47;5060204;28;45337;-67
2023/10/01 11:32:58;;;;;;;;;16.50;11.75;;;;;29.31;48.60;101849.28;5059099;28;46348;-68
2023/10/01 11:35:34;;;;;;;;;14.50;11.25;;;;;29.73;48.87;101844.19;5059704;28;45263;-67
2023/10/01 11:38:19;;;;;;;;;12.50;9.00;;;;;30.18;48.18;101842.53;5060248;28;45427;-68
2023/10/01 11:44:00;;;;;;;;;10.50;9.50;;;;;31.07;48.06;101839.78;5053279;28;45506;-70
2023/10/01 11:46:29;;;;;;;;;9.75;9.50;;;;;31.49;47.43;101836.25;5059476;28;45374;-69
2023/10/01 11:49:14;;;;;;;;;15.50;13.50;;;;;31.89;47.54;101838.25;5041589;28;45595;-67
2023/10/01 11:51:50;;;;;;;;;11.25;7.75;;;;;32.28;46.48;101830.25;5058199;28;45668;-65
2023/10/01 11:54:25;;;;;;;;;10.75;8.00;;;;;32.64;46.25;101838.81;5050861;28;46017;-69
2023/10/01 11:57:04;;;;;;;;;8.50;7.00;;;;;32.94;46.28;101827.97;5056042;28;45392;-67
2023/10/01 11:59:31;;;;;;;;;12.25;9.00;;;;;33.29;45.52;101834.72;5041117;28;45485;-69
2023/10/01 12:02:15;;;;;;;;;11.75;9.00;;;;;33.59;45.46;101835.53;5054189;28;45634;-68
2023/10/01 12:04:43;;;;;;;;;14.75;10.25;;;;;33.91;45.77;101835.16;5051918;28;47977;-69
2023/10/01 12:07:15;;;;;;;;;6.25;5.75;;;;;34.18;44.90;101828.88;5056371;28;45515;-69
2023/10/01 12:09:52;;;;;;;;;15.00;10.25;;;;;34.50;44.68;101837.63;5033052;28;45461;-69